Weather observations for the past three days for
Hermiston, Hermiston Municipal Airport
Metric (Imperial)
Date Time (pdt) Wind (kph) Vis. (km) Weather Sky Cond. Temperature (ºC) Relative Humidity Wind Chill (°C) Heat Index (°C) Pressure Precipitation (cm)
Air Dwpt 6 hour altimeter (cm) sea level (mb) 1 hr 3 hr 6 hr
Max. Min.
08 17:53 W 39 G 61 16.09 Fair and Breezy CLR 23.3 0 21% 76.12 1014.4
08 16:53 W 41 G 67 16.09 Fair and Breezy CLR 24.4 -1.7 25 20.6 18% 25 76.1 1014.4
08 15:53 W 46 G 67 16.09 Light Rain and Windy CLR 24.4 -4.4 14% 24 76.12 1014.5
08 14:53 SW 37 G 59 16.09 Fair and Breezy CLR 24.4 -7.2 12% 24 76.12 1014.6
08 13:53 W 43 G 63 0.00 Windy NULL 23.9 -8.3 11% 24 76.15 1014.7
08 12:53 W 35 G 52 16.09 Fair and Breezy CLR 22.8 -1.1 20% 76.15 1014.9
08 11:53 W 31 G 41 16.09 Fair CLR 23.3 3.3 27% 76.15 1014.9
08 10:53 SW 33 G 50 16.09 Fair and Breezy CLR 20.6 3.3 20.6 13.3 32% 76.17 1015.4
08 09:53 W 28 G 44 16.09 Fair CLR 19.4 5.6 41% 76.17 1015.4
08 08:53 SW 35 G 54 16.09 Fair and Breezy CLR 18.3 5.6 43% 76.15 1015.0
08 07:53 SW 28 G 44 16.09 Fair CLR 17.8 4.4 41% 76.12 1014.5
08 06:53 SW 22 16.09 Fair CLR 16.1 3.9 44% 76.1 1014.1
08 05:53 SW 22 G 39 16.09 Fair CLR 15 2.8 44% 76.07 1013.7
08 04:53 SW 15 16.09 Fair CLR 13.3 2.8 16.7 12.2 49% 76.07 1013.7
08 03:53 S 13 16.09 Fair CLR 12.2 0 43% 76.05 1013.3
08 02:53 SW 15 16.09 Fair CLR 13.9 -1.7 34% 76.05 1013.3
08 01:53 SW 19 16.09 Fair CLR 15 -2.2 31% 76.02 1013.2
08 00:53 SW 15 16.09 Fair CLR 15.6 -1.7 31% 76.02 1013.0
07 23:53 S 17 G 28 16.09 Fair CLR 15.6 -6.1 22% 76 1012.8
07 22:53 S 19 16.09 Fair CLR 16.7 -5 26.1 16.7 22% 75.97 1012.6
07 21:53 S 19 16.09 Fair CLR 17.8 -3.3 24% 75.97 1012.4
07 20:53 S 13 16.09 Fair CLR 17.8 -1.1 28% 75.95 1012.0
07 19:53 SW 7 16.09 Fair CLR 21.7 0 24% 75.9 1011.5
07 18:53 Calm 16.09 Fair CLR 23.9 2.2 24% 25 75.9 1011.5
07 17:53 NW 17 16.09 Fair CLR 25.6 1.1 20% 25 75.92 1011.7
07 16:53 Vrbl 9 16.09 Fair CLR 25.6 -1.1 26.1 20 17% 25 75.95 1011.9
07 15:53 NW 13 16.09 Fair CLR 26.1 -1.7 16% 25 75.97 1012.4
07 14:53 SW 17 16.09 Fair CLR 25.6 -5.6 12% 25 76.02 1013.2
07 13:53 W 17 G 28 16.09 Fair CLR 24.4 -2.2 17% 24 76.1 1014.1
07 12:53 W 15 16.09 Fair CLR 23.3 2.8 26% 76.15 1014.7
07 11:53 SW 22 G 33 16.09 Fair CLR 21.7 4.4 32% 76.17 1015.1
07 10:53 W 13 16.09 Fair CLR 20 5.6 20.6 12.8 39% 76.2 1015.6
07 09:53 W 20 16.09 Fair CLR 18.3 6.7 47% 76.25 1016.1
07 08:53 W 26 G 33 16.09 Fair CLR 17.2 6.7 50% 76.25 1016.2
07 07:53 SW 26 G 43 16.09 Fair CLR 15 7.2 60% 76.23 1016.0
07 06:53 SW 20 16.09 Fair CLR 13.9 8.3 69% 76.2 1015.4
07 05:53 SW 20 G 33 16.09 Fair CLR 12.8 8.3 74% 76.15 1014.9
07 04:53 SW 19 16.09 Fair CLR 13.9 8.3 18.3 13.9 69% 76.15 1014.7
07 03:53 W 26 G 46 16.09 Fair CLR 14.4 8.3 67% 76.1 1014.2
07 02:53 SW 24 G 43 16.09 Light Rain CLR 15 9.4 69% 76.12 1014.2
07 01:53 SW 22 G 33 16.09 Fair CLR 15.6 8.9 65% 76.12 1014.4
07 00:53 SW 22 G 37 16.09 Light Rain CLR 16.1 8.9 63% 76.1 1014.0
06 23:53 SW 28 G 46 16.09 Fair CLR 17.2 7.8 54% 76.07 1013.7
06 22:53 SW 30 G 43 16.09 Fair CLR 18.3 7.2 27.2 18.3 49% 76.05 1013.5
06 21:53 SW 30 G 48 16.09 Fair CLR 18.9 7.2 47% 76.02 1013.2
06 20:53 SW 26 G 44 16.09 Fair CLR 20 7.2 44% 76 1012.7
06 19:53 W 24 G 41 16.09 Fair CLR 21.7 8.3 42% 75.95 1012.0
06 18:53 W 28 G 44 16.09 Fair CLR 23.3 8.9 40% 75.9 1011.4
06 17:53 SW 20 G 44 16.09 Fair CLR 25 8.3 35% 26 75.87 1011.1
06 16:53 W 28 G 46 16.09 Fair CLR 27.2 8.9 28.9 23.3 32% 27 75.84 1010.8
06 15:53 W 31 G 43 16.09 Fair CLR 27.2 9.4 33% 27 75.87 1011.1
06 14:53 SW 24 G 41 16.09 Fair CLR 28.3 9.4 31% 27 75.92 1011.5
06 13:53 W 26 G 43 16.09 Fair CLR 27.8 8.9 31% 27 75.97 1012.3
06 12:53 W 26 16.09 Fair CLR 27.8 8.9 31% 27 75.97 1012.3
06 11:53 SW 24 G 41 16.09 Fair CLR 25.6 10 37% 26 76 1012.8
06 10:53 SW 24 G 43 16.09 Fair CLR 23.3 10 23.3 13.3 43% 76.07 1013.9
06 09:53 W 22 G 43 16.09 Fair CLR 21.1 9.4 47% 76.12 1014.5
06 08:53 W 31 G 44 16.09 Fair CLR 19.4 9.4 53% 76.12 1014.5
06 07:53 SW 24 G 35 16.09 Fair CLR 17.8 9.4 58% 76.12 1014.6
06 06:53 SW 19 16.09 Fair CLR 16.1 9.4 65% 76.1 1014.0
06 03:53 SW 11 16.09 Fair CLR 15.6 8.9 65% 75.97 1012.2
06 02:53 SW 7 16.09 Fair CLR 15 8.9 67% 75.92 1011.6
06 01:53 W 9 16.09 Fair CLR 14.4 9.4 72% 75.9 1011.4
06 00:53 SW 7 16.09 Fair CLR 16.1 8.3 60% 75.87 1011.2
05 23:53 Calm 16.09 Fair CLR 15 8.3 64% 75.84 1010.7
05 22:53 S 13 16.09 Fair CLR 16.7 8.9 28.9 16.7 60% 75.79 1009.9
05 21:53 S 15 16.09 Fair CLR 18.3 10 59% 75.77 1009.7
05 20:53 S 7 16.09 Fair CLR 20 9.4 51% 75.74 1009.3
05 19:53 SE 11 16.09 Fair CLR 23.9 9.4 40% 25 75.69 1008.7
05 18:53 E 6 16.09 Fair CLR 27.8 7.2 27% 27 75.69 1008.6
Date Time (pdt) Wind (kph) Vis. (km) Weather Sky Cond. Air Dwpt Max. Min. Relative Humidity Wind Chill (°C) Heat Index (°C) altimeter (cm) sea level (mb) 1 hr 3 hr 6 hr
6 hour
Temperature (ºC) Pressure Precipitation (cm)